Time;durP1;ratioP1;P1;durP2;ratioP2;P2;SDS_P1;SDS_P2;PMS_P1;PMS_P2;Temp;Humidity;BMP_temperature;BMP_pressure;BME280_temperature;BME280_humidity;BME280_pressure;Samples;Min_cycle;Max_cycle;Signal;HPM_P1;HPM_P2
2022/10/06 00:02:26;;;;;;;2.52;2.30;;;;;;;12.58;71.21;99820.38;1721802;83;21135;-72
2022/10/06 00:04:53;;;;;;;2.60;2.37;;;;;;;12.54;71.22;99818.55;1722031;81;21476;-72
2022/10/06 00:07:19;;;;;;;3.42;2.62;;;;;;;12.53;71.23;99811.57;1721940;81;21139;-71
2022/10/06 00:09:45;;;;;;;3.45;2.05;;;;;;;12.51;71.25;99810.09;1721885;81;20910;-72
2022/10/06 00:12:12;;;;;;;2.77;2.00;;;;;;;12.48;71.27;99801.09;1721880;83;20954;-73
2022/10/06 00:14:39;;;;;;;2.33;1.90;;;;;;;12.44;71.32;99795.26;1721944;81;20981;-73
2022/10/06 00:17:06;;;;;;;2.60;1.77;;;;;;;12.43;71.33;99800.78;1721750;81;21495;-73
2022/10/06 00:19:34;;;;;;;1.85;1.70;;;;;;;12.41;71.28;99791.59;1722023;81;21310;-73
2022/10/06 00:22:00;;;;;;;2.30;1.87;;;;;;;12.40;71.28;99797.95;1721746;81;20989;-72
2022/10/06 00:24:27;;;;;;;2.65;1.98;;;;;;;12.39;71.29;99795.79;1721982;81;20882;-73
2022/10/06 00:26:53;;;;;;;3.47;2.08;;;;;;;12.36;71.28;99791.29;1721838;81;20962;-73
2022/10/06 00:29:21;;;;;;;2.08;1.80;;;;;;;12.33;71.35;99795.14;1721979;81;20989;-73
2022/10/06 00:31:47;;;;;;;2.47;2.15;;;;;;;12.31;71.41;99798.48;1721729;81;21089;-73
2022/10/06 00:34:13;;;;;;;4.08;1.80;;;;;;;12.29;71.43;99793.00;1721610;81;21602;-75
2022/10/06 00:36:40;;;;;;;3.15;1.87;;;;;;;12.26;71.48;99789.34;1721921;83;20958;-73
2022/10/06 00:39:08;;;;;;;3.02;1.87;;;;;;;12.26;71.51;99793.34;1721882;81;21050;-75
2022/10/06 00:41:35;;;;;;;2.22;2.02;;;;;;;12.24;71.53;99794.86;1721837;83;20894;-73
2022/10/06 00:44:01;;;;;;;2.02;1.77;;;;;;;12.21;71.56;99787.70;1721830;83;21135;-72
2022/10/06 00:46:39;;;;;;;2.58;2.35;;;;;;;12.19;71.60;99786.55;1721683;81;20863;-74
2022/10/06 00:49:29;;;;;;;4.05;2.30;;;;;;;12.17;71.63;99786.39;1721810;81;21469;-73
2022/10/06 00:52:05;;;;;;;2.27;2.00;;;;;;;12.15;71.68;99783.88;1715411;83;20903;-75
2022/10/06 00:54:33;;;;;;;2.77;2.12;;;;;;;12.14;71.70;99782.73;1722094;81;21502;-73
2022/10/06 00:56:59;;;;;;;2.05;1.85;;;;;;;12.11;71.77;99777.74;1721776;81;21620;-74
2022/10/06 00:59:26;;;;;;;2.98;2.00;;;;;;;12.09;71.82;99781.93;1720423;83;20929;-73
2022/10/06 01:02:02;;;;;;;3.40;2.30;;;;;;;12.09;71.84;99778.42;1701423;81;21499;-74
2022/10/06 01:04:33;;;;;;;3.05;2.00;;;;;;;12.06;71.88;99774.27;1722175;83;27103;-73
2022/10/06 01:07:00;;;;;;;3.08;1.70;;;;;;;12.04;71.91;99778.95;1721209;81;20985;-75
2022/10/06 01:09:26;;;;;;;1.98;1.77;;;;;;;12.03;71.97;99779.94;1701516;83;21133;-74
2022/10/06 01:11:59;;;;;;;2.33;1.67;;;;;;;12.02;72.00;99775.59;1721939;81;20890;-73
2022/10/06 01:14:25;;;;;;;3.72;1.82;;;;;;;12.01;72.02;99783.78;1722149;81;20934;-72
2022/10/06 01:16:59;;;;;;;2.60;1.85;;;;;;;12.02;72.02;99780.13;1721820;81;21051;-71
2022/10/06 01:19:53;;;;;;;2.10;1.90;;;;;;;11.97;72.07;99781.95;1721644;83;21005;-72
2022/10/06 01:22:34;;;;;;;2.12;1.70;;;;;;;11.95;72.08;99779.97;1721990;81;21088;-71
2022/10/06 01:25:02;;;;;;;2.85;1.67;;;;;;;11.92;72.15;99777.64;1722099;81;20926;-74
2022/10/06 01:27:29;;;;;;;2.65;2.12;;;;;;;11.90;72.18;99774.81;1722753;81;21005;-75
2022/10/06 01:29:56;;;;;;;2.35;2.00;;;;;;;11.88;72.21;99776.33;1720663;81;20898;-74
2022/10/06 01:32:23;;;;;;;2.30;2.10;;;;;;;11.87;72.24;99771.99;1715841;81;20930;-73
2022/10/06 01:34:50;;;;;;;2.40;1.80;;;;;;;11.84;72.28;99771.00;1722111;81;21317;-72
2022/10/06 01:37:17;;;;;;;2.95;1.92;;;;;;;11.82;72.31;99764.17;1721842;81;20998;-73
2022/10/06 01:39:43;;;;;;;2.33;1.62;;;;;;;11.79;72.37;99762.68;1712091;81;20928;-74
2022/10/06 01:42:10;;;;;;;6.15;2.33;;;;;;;11.77;72.42;99764.69;1722060;81;21570;-74
2022/10/06 01:44:37;;;;;;;3.58;2.25;;;;;;;11.75;72.46;99754.71;1721979;81;20970;-74
2022/10/06 01:47:04;;;;;;;3.87;2.20;;;;;;;11.73;72.55;99754.06;1721976;83;21299;-73
2022/10/06 01:49:32;;;;;;;4.72;2.12;;;;;;;11.72;72.57;99761.71;1721972;81;21068;-76
2022/10/06 01:51:58;;;;;;;3.75;2.10;;;;;;;11.70;72.62;99761.89;1722012;83;20890;-76
2022/10/06 01:54:25;;;;;;;4.03;2.37;;;;;;;11.68;72.65;99767.00;1722197;81;21513;-75
2022/10/06 01:56:51;;;;;;;4.60;2.05;;;;;;;11.67;72.71;99766.69;1721937;81;20961;-75
2022/10/06 01:59:18;;;;;;;3.62;2.25;;;;;;;11.66;72.75;99765.02;1721704;81;21009;-75
2022/10/06 02:01:45;;;;;;;3.52;1.90;;;;;;;11.66;72.71;99769.02;1722063;81;21059;-73
2022/10/06 02:04:13;;;;;;;2.22;2.02;;;;;;;11.64;72.71;99773.20;1722020;81;20934;-74
2022/10/06 02:06:39;;;;;;;7.53;2.27;;;;;;;11.67;72.64;99769.36;1721949;81;21578;-74
2022/10/06 02:09:07;;;;;;;3.98;2.80;;;;;;;11.63;72.70;99768.02;1701834;83;20911;-73
2022/10/06 02:11:34;;;;;;;3.47;3.00;;;;;;;11.61;72.73;99764.70;1722029;81;21159;-73
2022/10/06 02:14:02;;;;;;;4.65;2.70;;;;;;;11.58;72.74;99768.53;1721837;81;20906;-75
2022/10/06 02:16:31;;;;;;;3.22;2.40;;;;;;;11.54;72.82;99763.72;1721956;83;20997;-73
2022/10/06 02:18:57;;;;;;;3.25;2.95;;;;;;;11.51;72.81;99768.05;1721931;81;20997;-74
2022/10/06 02:21:24;;;;;;;2.58;2.25;;;;;;;11.49;72.88;99766.06;1722009;81;20946;-73
2022/10/06 02:23:50;;;;;;;3.90;2.70;;;;;;;11.48;72.90;99771.89;1722117;81;21807;-76
2022/10/06 02:26:17;;;;;;;2.58;2.37;;;;;;;11.47;72.95;99770.73;1721854;83;20874;-76
2022/10/06 02:28:45;;;;;;;2.85;2.55;;;;;;;11.45;72.97;99771.38;1721946;83;20942;-72
2022/10/06 02:31:13;;;;;;;4.85;2.27;;;;;;;11.43;73.00;99772.05;1707024;83;21522;-74
2022/10/06 02:33:40;;;;;;;3.72;2.77;;;;;;;11.41;73.03;99772.23;1721928;81;21033;-72
2022/10/06 02:36:08;;;;;;;5.03;2.65;;;;;;;11.40;73.05;99770.56;1721985;81;21238;-74
2022/10/06 02:38:35;;;;;;;3.05;2.72;;;;;;;11.39;73.04;99770.25;1721910;81;20922;-73
2022/10/06 02:41:04;;;;;;;3.40;2.72;;;;;;;11.39;73.06;99773.41;1721815;81;20985;-71
2022/10/06 02:43:31;;;;;;;3.65;2.72;;;;;;;11.38;73.05;99775.73;1720599;83;20942;-74
2022/10/06 02:46:05;;;;;;;2.95;2.60;;;;;;;11.35;73.04;99767.57;1718136;83;20875;-72
2022/10/06 02:48:32;;;;;;;3.00;2.45;;;;;;;11.34;73.08;99767.23;1722301;81;21192;-74
2022/10/06 02:51:02;;;;;;;3.87;2.75;;;;;;;11.32;73.12;99771.90;1721780;83;20930;-73
2022/10/06 02:53:28;;;;;;;3.70;2.60;;;;;;;11.31;73.12;99769.42;1717929;83;21426;-73
2022/10/06 02:56:06;;;;;;;3.75;2.83;;;;;;;11.31;73.15;99769.42;1718989;81;20888;-73
2022/10/06 02:58:33;;;;;;;2.20;1.98;;;;;;;11.30;73.15;99765.91;1721486;82;20922;-72
2022/10/06 03:01:07;;;;;;;2.62;2.42;;;;;;;11.30;73.16;99762.41;1716413;82;21153;-72
2022/10/06 03:03:34;;;;;;;2.70;2.50;;;;;;;11.28;73.15;99763.09;1701152;83;21436;-73
2022/10/06 03:06:20;;;;;;;3.22;2.52;;;;;;;11.26;73.15;99767.76;1745552;82;20941;-72
2022/10/06 03:08:35;;;;;;;2.83;2.22;;;;;;;11.23;73.18;99764.93;1710703;81;21451;-74
2022/10/06 03:11:03;;;;;;;6.00;2.72;;;;;;;11.21;73.24;99773.56;1731866;81;21045;-72
2022/10/06 03:13:31;;;;;;;4.55;2.90;;;;;;;11.21;73.26;99774.09;1731977;81;21888;-74
2022/10/06 03:15:57;;;;;;;3.85;2.62;;;;;;;11.20;73.27;99765.75;1731819;81;20847;-73
2022/10/06 03:18:24;;;;;;;4.10;2.60;;;;;;;11.19;73.29;99768.91;1731790;82;20878;-75
2022/10/06 03:20:50;;;;;;;3.42;2.47;;;;;;;11.18;73.28;99776.06;1731922;81;21037;-71
2022/10/06 03:23:17;;;;;;;3.87;2.20;;;;;;;11.16;73.28;99768.75;1732107;81;21007;-72
2022/10/06 03:25:44;;;;;;;3.10;2.08;;;;;;;11.15;73.33;99768.44;1731944;81;21140;-73
2022/10/06 03:28:11;;;;;;;3.15;2.50;;;;;;;11.14;73.36;99767.25;1709952;82;21522;-73
2022/10/06 03:30:37;;;;;;;2.85;2.22;;;;;;;11.12;73.40;99771.42;1731990;81;20989;-74
2022/10/06 03:33:05;;;;;;;2.30;2.05;;;;;;;11.11;73.42;99767.09;1731977;81;20945;-71
2022/10/06 03:35:31;;;;;;;3.70;2.30;;;;;;;11.11;73.47;99769.75;1732043;81;21443;-72
2022/10/06 03:37:58;;;;;;;2.92;2.45;;;;;;;11.11;73.50;99764.91;1731932;81;21090;-73
2022/10/06 03:40:26;;;;;;;3.33;2.67;;;;;;;11.10;73.53;99767.27;1731863;81;20910;-72
2022/10/06 03:42:52;;;;;;;6.37;2.42;;;;;;;11.09;73.54;99766.42;1732016;81;20913;-70
2022/10/06 03:45:19;;;;;;;7.65;3.80;;;;;;;11.08;73.54;99767.41;1731955;81;20973;-72
2022/10/06 03:47:46;;;;;;;3.33;2.62;;;;;;;11.06;73.62;99765.42;1732176;81;21563;-72
2022/10/06 03:50:13;;;;;;;3.95;3.08;;;;;;;11.05;73.66;99769.07;1732045;82;21144;-73
2022/10/06 03:52:40;;;;;;;3.92;2.83;;;;;;;11.06;73.68;99764.59;1732329;81;20993;-71
2022/10/06 03:55:08;;;;;;;3.40;2.37;;;;;;;11.06;73.71;99769.91;1732071;81;22284;-72
2022/10/06 03:57:35;;;;;;;4.12;2.87;;;;;;;11.05;73.74;99766.41;1731833;82;20941;-73
2022/10/06 04:00:02;;;;;;;4.30;2.85;;;;;;;11.04;73.76;99766.09;1731705;81;20938;-74
2022/10/06 04:02:31;;;;;;;2.85;2.65;;;;;;;11.04;73.78;99772.75;1713676;81;21156;-72
2022/10/06 04:04:58;;;;;;;4.53;2.50;;;;;;;11.03;73.81;99771.08;1731903;81;20850;-72
2022/10/06 04:07:25;;;;;;;3.00;2.50;;;;;;;11.02;73.89;99773.42;1668870;85;21425;-71
2022/10/06 04:09:52;;;;;;;5.55;2.60;;;;;;;11.03;73.93;99774.23;1703107;82;20997;-72
2022/10/06 04:12:19;;;;;;;2.55;2.15;;;;;;;11.03;73.93;99775.56;1731698;81;20882;-74
2022/10/06 04:14:47;;;;;;;3.20;2.87;;;;;;;11.02;73.98;99779.23;1732102;81;20934;-73
2022/10/06 04:17:13;;;;;;;3.67;2.70;;;;;;;11.02;74.02;99776.09;1731844;81;21000;-74
2022/10/06 04:19:41;;;;;;;3.83;2.33;;;;;;;11.02;74.06;99774.76;1732084;81;20981;-71
2022/10/06 04:22:09;;;;;;;4.67;2.75;;;;;;;11.03;74.08;99772.41;1731802;82;21166;-74
2022/10/06 04:24:36;;;;;;;5.72;2.27;;;;;;;11.01;74.12;99774.41;1731955;81;20951;-75
2022/10/06 04:29:59;;;;;;;3.70;2.72;;;;;;;11.04;74.18;99772.75;1716785;81;20886;-73
2022/10/06 04:32:28;;;;;;;3.00;2.35;;;;;;;11.04;74.18;99772.75;1730145;81;20882;-73
2022/10/06 04:34:55;;;;;;;4.00;2.80;;;;;;;11.09;74.19;99771.75;1731943;81;20969;-74
2022/10/06 04:37:23;;;;;;;3.65;2.90;;;;;;;11.12;74.20;99779.41;1731913;81;21479;-73
2022/10/06 04:39:51;;;;;;;3.22;2.47;;;;;;;11.20;74.17;99776.41;1705060;82;21614;-70
2022/10/06 04:42:18;;;;;;;2.52;2.25;;;;;;;11.28;74.11;99779.07;1731781;82;20882;-74
2022/10/06 04:44:45;;;;;;;2.55;2.35;;;;;;;11.37;73.98;99780.71;1731974;81;20984;-75
2022/10/06 04:47:12;;;;;;;3.58;2.83;;;;;;;11.48;73.81;99775.88;1731960;82;21507;-75
2022/10/06 04:49:39;;;;;;;5.00;2.72;;;;;;;11.61;73.55;99774.02;1727040;81;21012;-74
2022/10/06 04:52:07;;;;;;;3.15;2.22;;;;;;;11.76;73.25;99777.19;1731881;82;21631;-72
2022/10/06 04:54:36;;;;;;;2.67;2.40;;;;;;;11.94;72.88;99774.30;1732203;81;20925;-73
2022/10/06 04:57:04;;;;;;;3.00;2.75;;;;;;;12.14;72.39;99770.73;1731914;82;21031;-74
2022/10/06 05:02:17;;;;;;;2.92;2.12;;;;;;;12.63;71.23;99772.14;1698363;84;21434;-73
2022/10/06 05:04:45;;;;;;;3.05;2.27;;;;;;;12.96;70.29;99780.75;1722689;83;21254;-71
2022/10/06 05:07:13;;;;;;;3.98;2.30;;;;;;;13.24;69.35;99772.57;1722636;83;20915;-73
2022/10/06 05:09:41;;;;;;;2.72;2.45;;;;;;;13.58;68.24;99772.09;1723625;81;20954;-77
2022/10/06 05:12:11;;;;;;;5.25;3.00;;;;;;;13.91;67.24;99768.05;1722543;83;21025;-72
2022/10/06 05:14:38;;;;;;;4.72;3.10;;;;;;;14.24;66.36;99769.81;1702715;84;20996;-72
2022/10/06 05:17:05;;;;;;;5.22;2.98;;;;;;;14.57;65.08;99768.38;1721461;81;21163;-74
2022/10/06 05:19:32;;;;;;;4.17;3.12;;;;;;;14.89;63.83;99771.63;1701649;84;20940;-73
2022/10/06 05:21:58;;;;;;;5.97;2.30;;;;;;;15.19;62.81;99771.30;1722800;83;20942;-75
2022/10/06 05:24:27;;;;;;;2.60;2.22;;;;;;;15.47;61.83;99770.52;1702703;83;20963;-73
2022/10/06 05:26:54;;;;;;;5.72;2.35;;;;;;;15.75;60.93;99773.51;1731204;81;20895;-74
2022/10/06 05:29:20;;;;;;;2.50;2.10;;;;;;;16.03;59.95;99774.30;1728214;81;21129;-73
2022/10/06 05:31:47;;;;;;;3.65;2.60;;;;;;;16.30;59.04;99778.45;1722683;83;21014;-69
2022/10/06 05:34:14;;;;;;;3.27;2.37;;;;;;;16.56;57.90;99782.11;1722631;83;21436;-72
2022/10/06 05:36:41;;;;;;;4.90;2.85;;;;;;;16.82;57.23;99785.39;1727220;81;20962;-75
2022/10/06 05:39:09;;;;;;;7.03;2.62;;;;;;;17.11;56.43;99788.23;1734392;81;20963;-73
2022/10/06 05:41:40;;;;;;;2.95;2.30;;;;;;;17.40;55.51;99785.67;1733042;81;21866;-74
2022/10/06 05:44:09;;;;;;;3.70;2.60;;;;;;;17.69;54.67;99788.81;1727812;82;21095;-72
2022/10/06 05:46:38;;;;;;;6.47;2.90;;;;;;;17.97;53.75;99785.86;1732456;82;21053;-72
2022/10/06 05:49:07;;;;;;;3.90;2.80;;;;;;;18.24;52.83;99786.11;1701019;83;21013;-73
2022/10/06 05:51:35;;;;;;;4.30;3.40;;;;;;;18.45;52.17;99789.88;1702629;84;20941;-74
2022/10/06 05:54:04;;;;;;;3.90;2.90;;;;;;;18.68;51.31;99788.55;1718037;82;21152;-74
2022/10/06 05:56:33;;;;;;;6.17;3.20;;;;;;;18.91;50.58;99785.63;1738133;81;21018;-73
2022/10/06 05:59:01;;;;;;;10.68;3.52;;;;;;;19.13;49.99;99785.28;1736361;81;21482;-75
2022/10/06 06:01:30;;;;;;;3.80;3.40;;;;;;;19.35;49.44;99790.09;1732016;81;20988;-72
2022/10/06 06:04:01;;;;;;;3.47;3.08;;;;;;;19.55;48.72;99790.77;1731831;82;20956;-73
2022/10/06 06:06:34;;;;;;;4.92;2.37;;;;;;;19.73;48.16;99787.32;1731805;81;21861;-74
2022/10/06 06:09:08;;;;;;;3.83;2.40;;;;;;;19.87;47.71;99788.83;1731657;82;21463;-71
2022/10/06 06:11:41;;;;;;;2.85;2.55;;;;;;;20.07;47.22;99804.84;1703459;82;21752;-73
2022/10/06 06:14:10;;;;;;;3.90;1.82;;;;;;;20.24;46.71;99800.52;1731734;81;20996;-71
2022/10/06 06:16:38;;;;;;;4.92;1.77;;;;;;;20.43;46.39;99802.70;1731538;81;21088;-74
2022/10/06 06:19:08;;;;;;;6.92;2.20;;;;;;;20.60;45.97;99805.08;1731733;82;21409;-72
2022/10/06 06:21:36;;;;;;;2.55;1.62;;;;;;;20.80;45.72;99807.85;1731576;81;20985;-75
2022/10/06 06:24:03;;;;;;;7.35;1.80;;;;;;;21.04;45.06;99810.09;1726251;81;20990;-71
2022/10/06 06:26:33;;;;;;;3.15;1.90;;;;;;;21.30;44.80;99816.50;1731784;82;21038;-75
2022/10/06 06:29:03;;;;;;;2.62;1.82;;;;;;;21.59;43.97;99812.64;1731851;81;20980;-74
2022/10/06 06:31:34;;;;;;;3.22;1.70;;;;;;;21.83;43.13;99810.23;1730579;82;21207;-75
2022/10/06 06:34:03;;;;;;;5.92;2.08;;;;;;;22.04;42.64;99804.25;1723213;81;20986;-70
2022/10/06 06:36:45;;;;;;;2.12;1.90;;;;;;;22.23;42.19;99808.48;1711289;82;20974;-73
2022/10/06 06:39:13;;;;;;;6.80;2.30;;;;;;;22.44;42.13;99809.22;1732574;82;20962;-71
2022/10/06 06:41:44;;;;;;;3.30;1.90;;;;;;;22.74;41.46;99807.67;1750807;82;21583;-70
2022/10/06 06:44:13;;;;;;;7.37;2.00;;;;;;;23.07;40.99;99809.13;1722745;82;21158;-73
2022/10/06 06:46:43;;;;;;;5.08;2.00;;;;;;;23.38;40.17;99807.00;1720320;82;21019;-71
2022/10/06 06:49:12;;;;;;;4.20;1.70;;;;;;;23.66;39.36;99801.50;1710841;83;21481;-72
2022/10/06 06:51:48;;;;;;;4.33;1.85;;;;;;;23.76;38.39;99805.73;1722618;82;21617;-71
2022/10/06 06:54:12;;;;;;;2.00;1.60;;;;;;;23.75;38.27;99809.53;1724486;80;20998;-75
2022/10/06 06:56:41;;;;;;;6.78;2.15;;;;;;;23.83;38.05;99800.94;1736033;81;21582;-75
2022/10/06 06:59:09;;;;;;;2.67;1.85;;;;;;;23.87;37.75;99804.82;1719285;82;21585;-74
2022/10/06 07:01:46;;;;;;;2.60;1.92;;;;;;;23.89;37.93;99801.31;1719237;82;20906;-77
2022/10/06 07:04:15;;;;;;;1.80;1.65;;;;;;;23.98;37.39;99808.78;1716764;83;21041;-77
2022/10/06 07:06:55;;;;;;;2.10;1.47;;;;;;;24.07;37.47;99809.19;1719285;82;20994;-73
2022/10/06 07:09:13;;;;;;;5.10;1.87;;;;;;;24.25;37.58;99810.29;1717672;83;21145;-76
2022/10/06 07:11:41;;;;;;;4.22;2.15;;;;;;;24.53;37.47;99816.91;1719347;82;20908;-74
2022/10/06 07:14:11;;;;;;;1.80;1.55;;;;;;;24.87;36.93;99810.83;1719051;82;20945;-75
2022/10/06 07:25:21;;;;;;;2.40;1.42;;;;;;;26.02;34.59;99810.25;1706069;83;20986;-75
2022/10/06 07:27:50;;;;;;;3.10;1.90;;;;;;;26.18;34.01;99809.83;1719350;83;21491;-76
2022/10/06 07:30:26;;;;;;;4.35;1.85;;;;;;;26.30;34.01;99815.38;1719406;82;20982;-78
2022/10/06 07:33:04;;;;;;;1.82;1.40;;;;;;;26.54;33.65;99813.02;1719147;82;20945;-78
2022/10/06 07:35:31;;;;;;;2.47;1.50;;;;;;;26.85;33.39;99814.00;1719616;82;21265;-73
2022/10/06 07:38:06;;;;;;;4.15;1.70;;;;;;;27.14;32.82;99812.98;1719266;82;20872;-76
2022/10/06 07:40:30;;;;;;;4.25;1.90;;;;;;;27.27;31.74;99807.80;1719238;82;20974;-76
2022/10/06 07:42:58;;;;;;;2.08;1.72;;;;;;;27.28;32.10;99812.18;1719274;82;20879;-76
2022/10/06 07:45:43;;;;;;;2.67;1.70;;;;;;;27.41;31.83;99804.85;1719207;82;21594;-78
2022/10/06 07:48:22;;;;;;;3.58;1.85;;;;;;;27.51;31.50;99812.22;1718880;82;20989;-76
2022/10/06 07:50:54;;;;;;;3.25;1.82;;;;;;;27.55;31.53;99812.80;1718874;82;20990;-74
2022/10/06 07:53:28;;;;;;;3.27;1.57;;;;;;;27.68;31.76;99814.16;1718488;82;20926;-75
2022/10/06 07:56:05;;;;;;;1.85;1.70;;;;;;;27.96;30.92;99815.48;1715196;82;21010;-74
2022/10/06 07:58:36;;;;;;;2.47;2.27;;;;;;;27.98;30.91;99807.28;1719359;82;21073;-76
2022/10/06 08:01:10;;;;;;;3.55;2.67;;;;;;;28.20;30.72;99807.55;1719095;82;21134;-77
2022/10/06 08:03:37;;;;;;;2.17;1.90;;;;;;;28.40;30.34;99810.21;1719392;82;21781;-75
2022/10/06 08:06:04;;;;;;;2.60;2.30;;;;;;;28.58;29.91;99807.69;1719306;82;20970;-76
2022/10/06 08:08:36;;;;;;;5.90;1.87;;;;;;;28.63;29.51;99813.16;1719197;82;20997;-75
2022/10/06 08:11:05;;;;;;;1.87;1.77;;;;;;;28.71;29.65;99813.13;1719347;82;20915;-76
2022/10/06 08:13:35;;;;;;;3.42;2.33;;;;;;;28.83;29.53;99802.69;1719275;82;21568;-74
2022/10/06 08:16:12;;;;;;;3.50;1.60;;;;;;;29.06;29.28;99803.92;1719375;82;20927;-76
2022/10/06 08:18:39;;;;;;;2.08;1.60;;;;;;;29.18;28.66;99813.42;1719274;82;21580;-77
2022/10/06 08:21:12;;;;;;;3.52;1.80;;;;;;;29.24;29.12;99815.06;1719376;82;20930;-77
2022/10/06 08:23:41;;;;;;;6.72;2.60;;;;;;;29.58;28.75;99815.63;1718470;83;21068;-76
2022/10/06 08:26:09;;;;;;;2.67;2.00;;;;;;;29.86;28.60;99817.06;1699286;82;21770;-74
2022/10/06 08:28:36;;;;;;;7.25;1.90;;;;;;;30.14;28.04;99814.03;1719226;83;20934;-78
2022/10/06 08:31:05;;;;;;;9.05;2.10;;;;;;;30.34;27.67;99812.46;1719248;82;21496;-76
2022/10/06 08:33:37;;;;;;;4.33;1.98;;;;;;;30.54;27.52;99817.73;1719257;82;21496;-75
2022/10/06 08:36:05;;;;;;;3.42;2.25;;;;;;;30.71;27.05;99813.70;1719228;82;20938;-74
2022/10/06 08:38:32;;;;;;;4.28;1.80;;;;;;;30.74;26.65;99809.78;1719377;82;21144;-76
2022/10/06 08:41:00;;;;;;;10.18;2.27;;;;;;;30.80;26.99;99816.86;1719212;82;21005;-77
2022/10/06 08:43:26;;;;;;;3.65;1.95;;;;;;;31.00;26.57;99813.86;1719409;82;21448;-77
2022/10/06 08:45:58;;;;;;;3.95;2.17;;;;;;;31.11;26.49;99811.78;1719266;82;21033;-74
2022/10/06 08:48:27;;;;;;;3.17;1.90;;;;;;;31.32;26.30;99804.88;1719327;82;20930;-76
2022/10/06 08:51:08;;;;;;;3.47;1.90;;;;;;;31.43;25.88;99813.78;1719520;82;21830;-77
2022/10/06 08:53:45;;;;;;;4.75;1.92;;;;;;;31.43;25.80;99807.73;1708984;82;21488;-76
2022/10/06 08:56:18;;;;;;;3.25;2.12;;;;;;;31.57;26.02;99809.98;1719410;82;20978;-75
2022/10/06 08:58:57;;;;;;;2.72;1.82;;;;;;;31.78;25.60;99814.61;1719391;82;21013;-76
2022/10/06 09:01:33;;;;;;;2.95;1.62;;;;;;;32.05;25.24;99808.36;1719334;82;20945;-75
2022/10/06 09:04:00;;;;;;;4.45;2.35;;;;;;;32.22;25.22;99801.73;1717500;82;21119;-76
2022/10/06 09:06:50;;;;;;;2.08;1.70;;;;;;;32.63;25.27;99801.19;1695896;84;20910;-76
2022/10/06 09:10:01;;;;;;;2.55;1.77;;;;;;;33.09;24.57;99802.95;1701692;82;20958;-77
2022/10/06 09:12:37;;;;;;;2.15;1.67;;;;;;;33.36;23.98;99800.12;1719370;82;20997;-75
2022/10/06 09:15:20;;;;;;;;;;;;;;;33.57;23.68;99804.05;1722060;82;20950;-77
2022/10/06 09:17:53;;;;;;;6.22;2.37;;;;;;;33.71;23.79;99802.05;1719420;82;21162;-75
2022/10/06 09:20:33;;;;;;;2.00;1.80;;;;;;;33.91;22.98;99803.45;1719269;82;20938;-77
2022/10/06 09:23:00;;;;;;;4.87;1.87;;;;;;;33.92;23.25;99796.22;1719349;82;20910;-76
2022/10/06 09:25:27;;;;;;;2.30;1.80;;;;;;;34.18;23.06;99804.69;1719657;82;20902;-76
2022/10/06 09:27:58;;;;;;;2.22;1.65;;;;;;;34.51;22.78;99803.19;1719542;82;20950;-76
2022/10/06 09:30:25;;;;;;;7.15;1.90;;;;;;;34.92;22.28;99803.37;1734243;81;21491;-78
2022/10/06 09:32:59;;;;;;;2.72;2.00;;;;;;;35.18;21.71;99798.72;1733274;82;21006;-79
2022/10/06 09:35:30;;;;;;;2.40;1.85;;;;;;;35.02;21.44;99802.50;1719705;82;20903;-75
2022/10/06 09:38:03;;;;;;;2.77;2.10;;;;;;;34.81;21.91;99801.48;1733649;82;20958;-74
2022/10/06 09:40:49;;;;;;;2.30;1.85;;;;;;;34.81;21.81;99803.46;1714207;83;21057;-77
2022/10/06 09:43:25;;;;;;;5.33;1.75;;;;;;;34.72;22.00;99809.78;1735908;82;21101;-77
2022/10/06 09:45:53;;;;;;;2.87;1.80;;;;;;;34.98;22.22;99807.62;1752032;82;20950;-73
2022/10/06 09:48:24;;;;;;;3.35;2.90;;;;;;;35.29;21.76;99809.14;1730867;82;20942;-75
2022/10/06 09:51:14;;;;;;;4.25;3.72;;;;;;;35.55;21.62;99808.34;1740997;82;21544;-76
2022/10/06 09:53:42;;;;;;;2.47;1.90;;;;;;;35.71;21.21;99813.05;1739312;82;21004;-77
2022/10/06 09:56:18;;;;;;;3.72;1.80;;;;;;;35.85;21.11;99814.25;1733736;82;21139;-76
2022/10/06 09:58:56;;;;;;;1.80;1.70;;;;;;;35.83;20.92;99821.47;1719393;82;20958;-76
2022/10/06 10:01:27;;;;;;;3.30;2.10;;;;;;;35.64;20.91;99820.22;1719434;82;21009;-74
2022/10/06 10:04:00;;;;;;;3.17;2.00;;;;;;;35.38;21.08;99820.78;1693559;83;21005;-78
2022/10/06 10:06:29;;;;;;;2.98;2.20;;;;;;;34.97;21.40;99823.38;1693645;83;20878;-75
2022/10/06 10:09:24;;;;;;;2.17;1.77;;;;;;;34.35;22.07;99825.45;1693523;83;21846;-77
2022/10/06 10:12:28;;;;;;;3.92;2.58;;;;;;;33.68;22.73;99827.50;1697079;82;21032;-78
2022/10/06 10:15:05;;;;;;;4.23;2.00;;;;;;;32.57;23.89;99824.44;1693905;83;21492;-76
2022/10/06 10:17:43;;;;;;;2.85;1.57;;;;;;;31.46;25.27;99824.21;1691015;83;20906;-73
2022/10/06 10:20:39;;;;;;;5.85;1.98;;;;;;;30.76;26.38;99836.42;1693786;83;20949;-75
2022/10/06 10:23:22;;;;;;;2.98;2.08;;;;;;;30.09;27.26;99838.77;1693688;83;21104;-76
2022/10/06 10:26:28;;;;;;;2.67;1.90;;;;;;;29.47;28.33;99842.84;1693561;83;20937;-74
2022/10/06 10:29:17;;;;;;;2.20;2.00;;;;;;;29.01;29.17;99844.48;1693964;83;21503;-74
2022/10/06 10:32:06;;;;;;;5.40;1.62;;;;;;;28.59;30.05;99843.55;1694022;83;20962;-76
2022/10/06 10:34:58;;;;;;;6.83;1.95;;;;;;;28.33;30.41;99836.52;1693610;83;21516;-74
2022/10/06 10:37:39;;;;;;;3.72;2.08;;;;;;;28.20;30.83;99843.92;1693642;83;21251;-75
2022/10/06 10:40:20;;;;;;;4.55;1.70;;;;;;;28.07;30.98;99833.55;1693524;83;20957;-76
2022/10/06 10:43:09;;;;;;;2.98;2.20;;;;;;;27.92;31.12;99835.71;1693372;83;20998;-73
2022/10/06 10:45:49;;;;;;;2.87;1.95;;;;;;;27.76;31.47;99832.73;1693464;84;20954;-75
2022/10/06 10:48:24;;;;;;;2.83;1.90;;;;;;;27.57;31.65;99830.27;1693623;83;21009;-76
2022/10/06 10:51:13;;;;;;;2.58;1.80;;;;;;;27.39;31.88;99834.36;1693678;83;21037;-76
2022/10/06 10:53:57;;;;;;;2.70;1.90;;;;;;;27.25;32.28;99838.66;1693579;83;20898;-74
2022/10/06 10:56:25;;;;;;;2.47;2.15;;;;;;;27.07;32.81;99841.90;1693730;83;20997;-76
2022/10/06 10:58:55;;;;;;;4.67;2.05;;;;;;;27.05;33.21;99837.26;1693551;83;21011;-75
2022/10/06 11:01:54;;;;;;;3.35;1.75;;;;;;;27.07;33.03;99832.87;1693644;83;21014;-75
2022/10/06 11:04:21;;;;;;;2.85;2.10;;;;;;;26.92;32.95;99829.58;1719472;82;21804;-73
2022/10/06 11:07:20;;;;;;;2.05;1.72;;;;;;;26.74;33.41;99834.13;1719243;82;20930;-76
2022/10/06 11:10:12;;;;;;;1.67;1.57;;;;;;;26.63;33.59;99833.26;1719356;82;21508;-75
2022/10/06 11:12:48;;;;;;;3.85;1.72;;;;;;;26.40;33.84;99830.97;1719424;82;20910;-74
2022/10/06 11:15:36;;;;;;;3.33;1.65;;;;;;;26.28;34.49;99826.27;1719465;82;20985;-76
2022/10/06 11:18:15;;;;;;;4.08;1.60;;;;;;;26.27;34.70;99824.62;1719289;82;21108;-76
2022/10/06 11:20:57;;;;;;;4.67;1.75;;;;;;;26.32;34.67;99827.38;1719040;82;20957;-76
2022/10/06 11:23:39;;;;;;;3.10;1.77;;;;;;;26.27;34.68;99825.45;1719481;82;20949;-75
2022/10/06 11:26:37;;;;;;;4.42;1.45;;;;;;;26.23;34.87;99824.31;1719496;82;20898;-77
2022/10/06 11:29:32;;;;;;;4.03;1.72;;;;;;;26.23;35.15;99822.12;1719430;82;21488;-74
2022/10/06 11:32:31;;;;;;;5.03;2.00;;;;;;;26.31;35.42;99819.73;1719566;82;21564;-75
2022/10/06 11:34:58;;;;;;;2.35;1.72;;;;;;;26.34;35.07;99817.84;1719185;82;20898;-76
2022/10/06 11:37:48;;;;;;;1.85;1.70;;;;;;;26.31;35.10;99818.91;1719313;82;21014;-75
2022/10/06 11:40:44;;;;;;;4.17;1.60;;;;;;;26.25;35.32;99817.25;1719443;82;21053;-74
2022/10/06 11:43:21;;;;;;;3.90;1.67;;;;;;;26.22;35.49;99824.59;1719764;82;20934;-76
2022/10/06 11:46:05;;;;;;;3.50;1.95;;;;;;;26.19;35.86;99825.94;1719212;82;21142;-75
2022/10/06 11:48:32;;;;;;;4.22;2.22;;;;;;;26.19;35.78;99816.40;1719439;82;20930;-75
2022/10/06 11:51:27;;;;;;;2.47;1.90;;;;;;;26.09;35.98;99820.94;1719363;82;21484;-77
2022/10/06 11:53:54;;;;;;;;;;;;;;;26.04;36.28;99819.55;1702364;83;20918;-73
2022/10/06 11:56:37;;;;;;;2.72;2.02;;;;;;;26.00;36.45;99819.23;1719610;82;20140;-75
2022/10/06 11:59:12;;;;;;;4.47;1.92;;;;;;;25.97;36.53;99829.30;1719315;82;21148;-74
2022/10/06 12:01:46;;;;;;;2.10;1.85;;;;;;;25.91;36.92;99823.55;1719395;82;20966;-75
2022/10/06 12:04:14;;;;;;;3.87;1.90;;;;;;;25.84;36.98;99831.11;1719264;83;20899;-75
2022/10/06 12:06:48;;;;;;;3.30;1.90;;;;;;;25.71;37.00;99829.65;1719332;82;21467;-73
2022/10/06 12:09:44;;;;;;;2.25;1.85;;;;;;;25.61;37.54;99836.38;1719355;83;20957;-75
2022/10/06 12:12:19;;;;;;;4.58;1.72;;;;;;;25.54;37.70;99834.95;1719279;82;21810;-75